sensor_id;sensor_type;location;lat;lon;timestamp;pressure;altitude;pressure_sealevel;temperature;humidity
51147;BME280;37207;53.060;18.726;2024-01-30T00:00:41;102282.71;;;0.57;92.15
51147;BME280;37207;53.060;18.726;2024-01-30T00:03:27;102277.41;;;0.57;92.18
51147;BME280;37207;53.060;18.726;2024-01-30T00:05:56;102272.98;;;0.56;92.12
51147;BME280;37207;53.060;18.726;2024-01-30T00:08:22;102277.71;;;0.56;92.29
51147;BME280;37207;53.060;18.726;2024-01-30T00:10:49;102275.44;;;0.54;92.25
51147;BME280;37207;53.060;18.726;2024-01-30T00:13:15;102273.95;;;0.53;92.32
51147;BME280;37207;53.060;18.726;2024-01-30T00:15:44;102277.62;;;0.51;92.41
51147;BME280;37207;53.060;18.726;2024-01-30T00:18:10;102274.48;;;0.48;92.40
51147;BME280;37207;53.060;18.726;2024-01-30T00:20:37;102277.79;;;0.45;92.30
51147;BME280;37207;53.060;18.726;2024-01-30T00:23:04;102274.81;;;0.43;92.24
51147;BME280;37207;53.060;18.726;2024-01-30T00:25:31;102271.36;;;0.40;92.27
51147;BME280;37207;53.060;18.726;2024-01-30T00:27:57;102268.16;;;0.38;92.33
51147;BME280;37207;53.060;18.726;2024-01-30T00:30:24;102266.42;;;0.36;92.38
51147;BME280;37207;53.060;18.726;2024-01-30T00:32:50;102272.34;;;0.34;92.29
51147;BME280;37207;53.060;18.726;2024-01-30T00:35:17;102274.51;;;0.33;92.35
51147;BME280;37207;53.060;18.726;2024-01-30T00:37:43;102275.59;;;0.32;92.50
51147;BME280;37207;53.060;18.726;2024-01-30T00:40:10;102278.45;;;0.31;92.56
51147;BME280;37207;53.060;18.726;2024-01-30T00:42:42;102271.71;;;0.33;92.67
51147;BME280;37207;53.060;18.726;2024-01-30T00:45:15;102271.48;;;0.32;92.68
51147;BME280;37207;53.060;18.726;2024-01-30T00:47:43;102271.16;;;0.31;92.74
51147;BME280;37207;53.060;18.726;2024-01-30T00:50:10;102270.73;;;0.29;92.54
51147;BME280;37207;53.060;18.726;2024-01-30T00:52:37;102267.21;;;0.27;92.57
51147;BME280;37207;53.060;18.726;2024-01-30T00:55:05;102270.75;;;0.23;92.70
51147;BME280;37207;53.060;18.726;2024-01-30T00:57:32;102274.45;;;0.20;92.49
51147;BME280;37207;53.060;18.726;2024-01-30T00:59:58;102271.64;;;0.17;92.52
51147;BME280;37207;53.060;18.726;2024-01-30T01:02:25;102269.50;;;0.14;92.60
51147;BME280;37207;53.060;18.726;2024-01-30T01:04:51;102264.45;;;0.13;92.49
51147;BME280;37207;53.060;18.726;2024-01-30T01:07:18;102260.71;;;0.13;92.46
51147;BME280;37207;53.060;18.726;2024-01-30T01:09:45;102261.64;;;0.11;92.53
51147;BME280;37207;53.060;18.726;2024-01-30T01:12:14;102260.79;;;0.12;92.66
51147;BME280;37207;53.060;18.726;2024-01-30T01:14:41;102253.50;;;0.13;92.84
51147;BME280;37207;53.060;18.726;2024-01-30T01:17:08;102250.63;;;0.13;92.76
51147;BME280;37207;53.060;18.726;2024-01-30T01:19:34;102250.46;;;0.13;92.77
51147;BME280;37207;53.060;18.726;2024-01-30T01:22:01;102248.92;;;0.14;92.93
51147;BME280;37207;53.060;18.726;2024-01-30T01:24:31;102248.39;;;0.14;92.90
51147;BME280;37207;53.060;18.726;2024-01-30T01:27:00;102245.59;;;0.13;92.87
51147;BME280;37207;53.060;18.726;2024-01-30T01:29:27;102236.34;;;0.13;92.95
51147;BME280;37207;53.060;18.726;2024-01-30T01:31:55;102236.94;;;0.11;93.02
51147;BME280;37207;53.060;18.726;2024-01-30T01:34:22;102234.73;;;0.09;92.94
51147;BME280;37207;53.060;18.726;2024-01-30T01:36:50;102234.24;;;0.06;93.06
51147;BME280;37207;53.060;18.726;2024-01-30T01:39:17;102235.84;;;0.04;92.95
51147;BME280;37207;53.060;18.726;2024-01-30T01:41:44;102239.94;;;0.02;92.80
51147;BME280;37207;53.060;18.726;2024-01-30T01:44:10;102235.52;;;-0.00;92.87
51147;BME280;37207;53.060;18.726;2024-01-30T01:46:37;102234.81;;;-0.01;92.96
51147;BME280;37207;53.060;18.726;2024-01-30T01:49:05;102237.15;;;-0.00;92.93
51147;BME280;37207;53.060;18.726;2024-01-30T01:51:34;102236.38;;;-0.00;93.10
51147;BME280;37207;53.060;18.726;2024-01-30T01:54:04;102228.69;;;0.00;92.91
51147;BME280;37207;53.060;18.726;2024-01-30T01:56:33;102230.70;;;0.01;93.13
51147;BME280;37207;53.060;18.726;2024-01-30T01:59:06;102238.70;;;0.02;93.19
51147;BME280;37207;53.060;18.726;2024-01-30T02:01:37;102235.61;;;0.03;93.16
51147;BME280;37207;53.060;18.726;2024-01-30T02:04:04;102232.98;;;0.04;93.28
51147;BME280;37207;53.060;18.726;2024-01-30T02:06:32;102232.83;;;0.05;93.18
51147;BME280;37207;53.060;18.726;2024-01-30T02:08:58;102232.43;;;0.04;93.20
51147;BME280;37207;53.060;18.726;2024-01-30T02:11:25;102230.55;;;0.02;93.04
51147;BME280;37207;53.060;18.726;2024-01-30T02:13:52;102230.46;;;-0.01;93.02
51147;BME280;37207;53.060;18.726;2024-01-30T02:16:18;102233.77;;;-0.04;92.87
51147;BME280;37207;53.060;18.726;2024-01-30T02:18:45;102232.88;;;-0.07;92.73
51147;BME280;37207;53.060;18.726;2024-01-30T02:21:15;102230.83;;;-0.10;92.66
51147;BME280;37207;53.060;18.726;2024-01-30T02:23:46;102231.10;;;-0.13;92.72
51147;BME280;37207;53.060;18.726;2024-01-30T02:26:13;102233.50;;;-0.14;92.93
51147;BME280;37207;53.060;18.726;2024-01-30T02:28:40;102231.55;;;-0.15;92.70
51147;BME280;37207;53.060;18.726;2024-01-30T02:31:06;102230.23;;;-0.15;92.84
51147;BME280;37207;53.060;18.726;2024-01-30T02:33:33;102230.92;;;-0.15;92.88
51147;BME280;37207;53.060;18.726;2024-01-30T02:35:59;102233.94;;;-0.15;92.84
51147;BME280;37207;53.060;18.726;2024-01-30T02:38:26;102237.20;;;-0.16;92.85
51147;BME280;37207;53.060;18.726;2024-01-30T02:40:53;102241.16;;;-0.15;92.87
51147;BME280;37207;53.060;18.726;2024-01-30T02:43:19;102238.05;;;-0.15;93.04
51147;BME280;37207;53.060;18.726;2024-01-30T02:45:46;102242.02;;;-0.15;93.00
51147;BME280;37207;53.060;18.726;2024-01-30T02:48:12;102242.58;;;-0.14;93.09
51147;BME280;37207;53.060;18.726;2024-01-30T02:50:39;102243.19;;;-0.15;93.06
51147;BME280;37207;53.060;18.726;2024-01-30T02:53:05;102243.02;;;-0.16;93.01
51147;BME280;37207;53.060;18.726;2024-01-30T02:55:33;102243.23;;;-0.20;92.86
51147;BME280;37207;53.060;18.726;2024-01-30T02:57:59;102246.85;;;-0.22;92.86
51147;BME280;37207;53.060;18.726;2024-01-30T03:00:26;102247.35;;;-0.25;92.90
51147;BME280;37207;53.060;18.726;2024-01-30T03:02:52;102245.08;;;-0.27;92.82
51147;BME280;37207;53.060;18.726;2024-01-30T03:05:19;102247.32;;;-0.27;92.86
51147;BME280;37207;53.060;18.726;2024-01-30T03:07:46;102242.05;;;-0.28;92.82
51147;BME280;37207;53.060;18.726;2024-01-30T03:10:12;102243.96;;;-0.29;92.87
51147;BME280;37207;53.060;18.726;2024-01-30T03:12:39;102241.89;;;-0.28;92.91
51147;BME280;37207;53.060;18.726;2024-01-30T03:15:05;102239.65;;;-0.28;92.80
51147;BME280;37207;53.060;18.726;2024-01-30T03:17:32;102238.41;;;-0.27;93.15
51147;BME280;37207;53.060;18.726;2024-01-30T03:19:58;102238.48;;;-0.27;93.11
51147;BME280;37207;53.060;18.726;2024-01-30T03:22:25;102236.77;;;-0.27;93.26
51147;BME280;37207;53.060;18.726;2024-01-30T03:24:52;102232.29;;;-0.26;93.16
51147;BME280;37207;53.060;18.726;2024-01-30T03:27:18;102230.87;;;-0.28;93.08
51147;BME280;37207;53.060;18.726;2024-01-30T03:29:45;102231.16;;;-0.29;93.12
51147;BME280;37207;53.060;18.726;2024-01-30T03:32:11;102228.58;;;-0.31;93.15
51147;BME280;37207;53.060;18.726;2024-01-30T03:34:38;102227.77;;;-0.33;93.12
51147;BME280;37207;53.060;18.726;2024-01-30T03:37:04;102226.77;;;-0.36;93.11
51147;BME280;37207;53.060;18.726;2024-01-30T03:39:31;102228.75;;;-0.38;92.96
51147;BME280;37207;53.060;18.726;2024-01-30T03:41:57;102229.44;;;-0.39;93.12
51147;BME280;37207;53.060;18.726;2024-01-30T03:44:24;102219.96;;;-0.40;92.98
51147;BME280;37207;53.060;18.726;2024-01-30T03:46:50;102220.20;;;-0.40;93.16
51147;BME280;37207;53.060;18.726;2024-01-30T03:49:17;102222.13;;;-0.41;93.02
51147;BME280;37207;53.060;18.726;2024-01-30T03:51:44;102226.86;;;-0.40;93.18
51147;BME280;37207;53.060;18.726;2024-01-30T03:54:11;102226.80;;;-0.39;93.24
51147;BME280;37207;53.060;18.726;2024-01-30T03:56:37;102225.95;;;-0.38;93.17
51147;BME280;37207;53.060;18.726;2024-01-30T03:59:04;102231.25;;;-0.38;93.33
51147;BME280;37207;53.060;18.726;2024-01-30T04:01:30;102229.21;;;-0.39;93.22
51147;BME280;37207;53.060;18.726;2024-01-30T04:03:57;102228.89;;;-0.39;93.23
51147;BME280;37207;53.060;18.726;2024-01-30T04:06:23;102228.39;;;-0.42;93.17
51147;BME280;37207;53.060;18.726;2024-01-30T04:08:50;102223.25;;;-0.44;93.11
51147;BME280;37207;53.060;18.726;2024-01-30T04:11:18;102223.92;;;-0.46;93.04
51147;BME280;37207;53.060;18.726;2024-01-30T04:13:46;102228.56;;;-0.46;93.08
51147;BME280;37207;53.060;18.726;2024-01-30T04:16:21;102231.36;;;-0.46;93.39
51147;BME280;37207;53.060;18.726;2024-01-30T04:18:51;102233.94;;;-0.45;93.29
51147;BME280;37207;53.060;18.726;2024-01-30T04:21:20;102230.79;;;-0.43;93.36
51147;BME280;37207;53.060;18.726;2024-01-30T04:23:47;102232.75;;;-0.41;93.23
51147;BME280;37207;53.060;18.726;2024-01-30T04:26:14;102230.35;;;-0.40;93.23
51147;BME280;37207;53.060;18.726;2024-01-30T04:28:42;102233.14;;;-0.40;93.33
51147;BME280;37207;53.060;18.726;2024-01-30T04:31:08;102231.22;;;-0.39;93.36
51147;BME280;37207;53.060;18.726;2024-01-30T04:33:35;102229.89;;;-0.40;93.50
51147;BME280;37207;53.060;18.726;2024-01-30T04:36:02;102232.29;;;-0.41;93.21
51147;BME280;37207;53.060;18.726;2024-01-30T04:38:29;102228.78;;;-0.42;93.34
51147;BME280;37207;53.060;18.726;2024-01-30T04:40:55;102231.70;;;-0.44;93.39
51147;BME280;37207;53.060;18.726;2024-01-30T04:43:22;102227.47;;;-0.47;93.38
51147;BME280;37207;53.060;18.726;2024-01-30T04:45:49;102222.47;;;-0.49;93.26
51147;BME280;37207;53.060;18.726;2024-01-30T04:48:16;102218.73;;;-0.51;93.17
51147;BME280;37207;53.060;18.726;2024-01-30T04:50:43;102224.08;;;-0.52;93.10
51147;BME280;37207;53.060;18.726;2024-01-30T04:53:09;102223.98;;;-0.52;93.30
51147;BME280;37207;53.060;18.726;2024-01-30T04:55:36;102225.33;;;-0.51;93.35
51147;BME280;37207;53.060;18.726;2024-01-30T04:58:02;102224.16;;;-0.50;93.38
51147;BME280;37207;53.060;18.726;2024-01-30T05:00:29;102222.23;;;-0.50;93.27
51147;BME280;37207;53.060;18.726;2024-01-30T05:02:56;102223.57;;;-0.49;93.46
51147;BME280;37207;53.060;18.726;2024-01-30T05:05:22;102226.45;;;-0.48;93.44
51147;BME280;37207;53.060;18.726;2024-01-30T05:07:49;102226.77;;;-0.47;93.56
51147;BME280;37207;53.060;18.726;2024-01-30T05:10:15;102226.47;;;-0.46;93.40
51147;BME280;37207;53.060;18.726;2024-01-30T05:12:42;102223.14;;;-0.46;93.71
51147;BME280;37207;53.060;18.726;2024-01-30T05:15:09;102225.56;;;-0.44;93.67
51147;BME280;37207;53.060;18.726;2024-01-30T05:17:35;102225.02;;;-0.44;93.67
51147;BME280;37207;53.060;18.726;2024-01-30T05:20:02;102229.77;;;-0.44;93.67
51147;BME280;37207;53.060;18.726;2024-01-30T05:22:29;102228.20;;;-0.45;93.54
51147;BME280;37207;53.060;18.726;2024-01-30T05:24:56;102227.39;;;-0.47;93.52
51147;BME280;37207;53.060;18.726;2024-01-30T05:27:22;102224.87;;;-0.50;93.45
51147;BME280;37207;53.060;18.726;2024-01-30T05:29:49;102224.77;;;-0.51;93.51
51147;BME280;37207;53.060;18.726;2024-01-30T05:32:16;102220.49;;;-0.55;93.41
51147;BME280;37207;53.060;18.726;2024-01-30T05:34:42;102217.21;;;-0.56;93.33
51147;BME280;37207;53.060;18.726;2024-01-30T05:37:09;102217.99;;;-0.56;93.44
51147;BME280;37207;53.060;18.726;2024-01-30T05:39:35;102219.00;;;-0.56;93.69
51147;BME280;37207;53.060;18.726;2024-01-30T05:42:03;102219.89;;;-0.54;93.44
51147;BME280;37207;53.060;18.726;2024-01-30T05:44:29;102229.20;;;-0.52;93.50
51147;BME280;37207;53.060;18.726;2024-01-30T05:46:56;102231.63;;;-0.50;93.92
51147;BME280;37207;53.060;18.726;2024-01-30T05:49:22;102230.02;;;-0.48;93.77
51147;BME280;37207;53.060;18.726;2024-01-30T05:51:49;102227.48;;;-0.46;93.88
51147;BME280;37207;53.060;18.726;2024-01-30T05:54:15;102230.63;;;-0.44;93.69
51147;BME280;37207;53.060;18.726;2024-01-30T05:56:42;102227.52;;;-0.43;93.66
51147;BME280;37207;53.060;18.726;2024-01-30T05:59:08;102231.23;;;-0.44;93.56
51147;BME280;37207;53.060;18.726;2024-01-30T06:01:35;102227.80;;;-0.45;93.55
51147;BME280;37207;53.060;18.726;2024-01-30T06:04:02;102227.64;;;-0.46;93.31
51147;BME280;37207;53.060;18.726;2024-01-30T06:06:29;102228.38;;;-0.48;93.37
51147;BME280;37207;53.060;18.726;2024-01-30T06:08:55;102229.06;;;-0.49;93.49
51147;BME280;37207;53.060;18.726;2024-01-30T06:11:22;102233.02;;;-0.50;93.38
51147;BME280;37207;53.060;18.726;2024-01-30T06:13:49;102233.99;;;-0.51;93.37
51147;BME280;37207;53.060;18.726;2024-01-30T06:16:15;102232.21;;;-0.51;93.32
51147;BME280;37207;53.060;18.726;2024-01-30T06:18:42;102230.04;;;-0.51;93.41
51147;BME280;37207;53.060;18.726;2024-01-30T06:21:08;102229.42;;;-0.51;93.41
51147;BME280;37207;53.060;18.726;2024-01-30T06:23:35;102231.95;;;-0.49;93.46
51147;BME280;37207;53.060;18.726;2024-01-30T06:26:01;102234.23;;;-0.46;93.66
51147;BME280;37207;53.060;18.726;2024-01-30T06:28:28;102237.51;;;-0.44;93.60
51147;BME280;37207;53.060;18.726;2024-01-30T06:30:55;102241.02;;;-0.43;93.46
51147;BME280;37207;53.060;18.726;2024-01-30T06:33:22;102239.30;;;-0.44;93.78
51147;BME280;37207;53.060;18.726;2024-01-30T06:35:48;102237.98;;;-0.44;93.51
51147;BME280;37207;53.060;18.726;2024-01-30T06:38:15;102240.84;;;-0.45;93.58
51147;BME280;37207;53.060;18.726;2024-01-30T06:40:42;102242.13;;;-0.47;93.48
51147;BME280;37207;53.060;18.726;2024-01-30T06:43:08;102246.15;;;-0.48;93.44
51147;BME280;37207;53.060;18.726;2024-01-30T06:45:35;102244.61;;;-0.47;93.39
51147;BME280;37207;53.060;18.726;2024-01-30T06:48:02;102242.55;;;-0.45;93.64
51147;BME280;37207;53.060;18.726;2024-01-30T06:50:29;102239.65;;;-0.42;93.68
51147;BME280;37207;53.060;18.726;2024-01-30T06:52:56;102244.27;;;-0.39;93.64
51147;BME280;37207;53.060;18.726;2024-01-30T06:55:22;102245.86;;;-0.32;93.85
51147;BME280;37207;53.060;18.726;2024-01-30T06:57:49;102246.31;;;-0.27;93.78
51147;BME280;37207;53.060;18.726;2024-01-30T07:00:16;102245.84;;;-0.22;93.73
51147;BME280;37207;53.060;18.726;2024-01-30T07:02:42;102244.11;;;-0.16;93.70
51147;BME280;37207;53.060;18.726;2024-01-30T07:05:09;102244.63;;;-0.11;93.52
51147;BME280;37207;53.060;18.726;2024-01-30T07:07:36;102242.34;;;-0.08;93.61
51147;BME280;37207;53.060;18.726;2024-01-30T07:10:03;102240.91;;;-0.04;93.48
51147;BME280;37207;53.060;18.726;2024-01-30T07:12:31;102240.71;;;0.01;93.39
51147;BME280;37207;53.060;18.726;2024-01-30T07:14:57;102236.87;;;0.05;93.33
51147;BME280;37207;53.060;18.726;2024-01-30T07:17:25;102240.66;;;0.11;93.30
51147;BME280;37207;53.060;18.726;2024-01-30T07:19:52;102238.95;;;0.20;93.20
51147;BME280;37207;53.060;18.726;2024-01-30T07:22:19;102239.67;;;0.29;93.26
51147;BME280;37207;53.060;18.726;2024-01-30T07:24:46;102237.95;;;0.37;93.41
51147;BME280;37207;53.060;18.726;2024-01-30T07:27:14;102236.45;;;0.45;93.21
51147;BME280;37207;53.060;18.726;2024-01-30T07:29:42;102236.83;;;0.52;93.08
51147;BME280;37207;53.060;18.726;2024-01-30T07:32:08;102228.48;;;0.58;93.06
51147;BME280;37207;53.060;18.726;2024-01-30T07:34:35;102232.95;;;0.63;93.02
51147;BME280;37207;53.060;18.726;2024-01-30T07:37:02;102230.58;;;0.67;92.82
51147;BME280;37207;53.060;18.726;2024-01-30T07:39:29;102232.67;;;0.71;92.62
51147;BME280;37207;53.060;18.726;2024-01-30T07:41:56;102235.89;;;0.74;92.67
51147;BME280;37207;53.060;18.726;2024-01-30T07:44:22;102232.67;;;0.79;92.54
51147;BME280;37207;53.060;18.726;2024-01-30T07:46:50;102236.13;;;0.83;92.52
51147;BME280;37207;53.060;18.726;2024-01-30T07:49:16;102235.84;;;0.88;92.46
51147;BME280;37207;53.060;18.726;2024-01-30T07:51:43;102237.14;;;0.96;92.46
51147;BME280;37207;53.060;18.726;2024-01-30T07:54:11;102238.23;;;1.13;92.56
51147;BME280;37207;53.060;18.726;2024-01-30T07:56:38;102240.11;;;1.44;92.52
51147;BME280;37207;53.060;18.726;2024-01-30T07:59:04;102240.58;;;1.66;92.24
51147;BME280;37207;53.060;18.726;2024-01-30T08:01:31;102237.15;;;1.92;92.12
51147;BME280;37207;53.060;18.726;2024-01-30T08:03:57;102240.70;;;2.41;92.15
51147;BME280;37207;53.060;18.726;2024-01-30T08:06:24;102239.84;;;2.64;91.47
51147;BME280;37207;53.060;18.726;2024-01-30T08:08:50;102237.66;;;2.62;90.74
51147;BME280;37207;53.060;18.726;2024-01-30T08:11:20;102236.98;;;2.57;90.34
51147;BME280;37207;53.060;18.726;2024-01-30T08:13:55;102236.89;;;2.53;90.32
51147;BME280;37207;53.060;18.726;2024-01-30T08:16:21;102237.35;;;2.49;90.02
51147;BME280;37207;53.060;18.726;2024-01-30T08:18:48;102238.05;;;2.45;89.89
51147;BME280;37207;53.060;18.726;2024-01-30T08:21:14;102238.30;;;2.39;89.82
51147;BME280;37207;53.060;18.726;2024-01-30T08:23:42;102241.41;;;2.34;89.67
51147;BME280;37207;53.060;18.726;2024-01-30T08:26:09;102239.45;;;2.29;89.61
51147;BME280;37207;53.060;18.726;2024-01-30T08:28:35;102242.95;;;2.26;89.26
51147;BME280;37207;53.060;18.726;2024-01-30T08:31:02;102240.55;;;2.24;89.36
51147;BME280;37207;53.060;18.726;2024-01-30T08:33:29;102237.83;;;2.23;89.14
51147;BME280;37207;53.060;18.726;2024-01-30T08:35:55;102237.52;;;2.23;89.18
51147;BME280;37207;53.060;18.726;2024-01-30T08:38:22;102237.52;;;2.24;89.08
51147;BME280;37207;53.060;18.726;2024-01-30T08:40:49;102238.73;;;2.27;89.16
51147;BME280;37207;53.060;18.726;2024-01-30T08:43:16;102243.27;;;2.32;89.08
51147;BME280;37207;53.060;18.726;2024-01-30T08:45:42;102242.89;;;2.35;89.25
51147;BME280;37207;53.060;18.726;2024-01-30T08:48:09;102246.80;;;2.41;88.94
51147;BME280;37207;53.060;18.726;2024-01-30T08:50:35;102244.74;;;2.44;88.51
51147;BME280;37207;53.060;18.726;2024-01-30T08:53:02;102243.43;;;2.49;88.71
51147;BME280;37207;53.060;18.726;2024-01-30T08:55:29;102241.42;;;2.54;88.80
51147;BME280;37207;53.060;18.726;2024-01-30T08:57:56;102238.30;;;2.59;88.41
51147;BME280;37207;53.060;18.726;2024-01-30T09:00:22;102239.91;;;2.64;88.34
51147;BME280;37207;53.060;18.726;2024-01-30T09:02:49;102241.79;;;2.69;88.46
51147;BME280;37207;53.060;18.726;2024-01-30T09:05:15;102241.55;;;2.75;88.22
51147;BME280;37207;53.060;18.726;2024-01-30T09:07:42;102244.10;;;2.82;87.99
51147;BME280;37207;53.060;18.726;2024-01-30T09:10:08;102244.11;;;2.88;88.20
51147;BME280;37207;53.060;18.726;2024-01-30T09:12:35;102245.35;;;2.93;87.84
51147;BME280;37207;53.060;18.726;2024-01-30T09:15:02;102244.16;;;2.96;87.69
51147;BME280;37207;53.060;18.726;2024-01-30T09:17:28;102238.77;;;2.98;87.78
51147;BME280;37207;53.060;18.726;2024-01-30T09:19:55;102240.11;;;3.01;87.34
51147;BME280;37207;53.060;18.726;2024-01-30T09:22:21;102236.52;;;3.03;87.19
51147;BME280;37207;53.060;18.726;2024-01-30T09:24:48;102234.71;;;3.07;87.30
51147;BME280;37207;53.060;18.726;2024-01-30T09:27:14;102233.68;;;3.11;87.29
51147;BME280;37207;53.060;18.726;2024-01-30T09:29:41;102229.84;;;3.17;87.20
51147;BME280;37207;53.060;18.726;2024-01-30T09:32:07;102226.86;;;3.23;87.19
51147;BME280;37207;53.060;18.726;2024-01-30T09:34:35;102222.14;;;3.30;87.24
51147;BME280;37207;53.060;18.726;2024-01-30T09:37:01;102223.14;;;3.35;86.85
51147;BME280;37207;53.060;18.726;2024-01-30T09:39:28;102219.38;;;3.41;86.42
51147;BME280;37207;53.060;18.726;2024-01-30T09:42:02;102216.62;;;3.46;86.33
51147;BME280;37207;53.060;18.726;2024-01-30T09:44:32;102217.84;;;3.51;86.11
51147;BME280;37207;53.060;18.726;2024-01-30T09:47:01;102216.58;;;3.57;86.02
51147;BME280;37207;53.060;18.726;2024-01-30T09:49:31;102219.20;;;3.62;85.84
51147;BME280;37207;53.060;18.726;2024-01-30T09:52:00;102216.74;;;3.69;85.91
51147;BME280;37207;53.060;18.726;2024-01-30T09:54:29;102219.45;;;3.75;85.70
51147;BME280;37207;53.060;18.726;2024-01-30T09:56:56;102217.79;;;3.80;85.26
51147;BME280;37207;53.060;18.726;2024-01-30T09:59:23;102213.68;;;3.85;85.08
51147;BME280;37207;53.060;18.726;2024-01-30T10:01:50;102211.71;;;3.89;84.84
51147;BME280;37207;53.060;18.726;2024-01-30T10:04:18;102209.34;;;3.94;84.35
51147;BME280;37207;53.060;18.726;2024-01-30T10:06:44;102205.40;;;3.98;84.78
51147;BME280;37207;53.060;18.726;2024-01-30T10:09:12;102201.21;;;4.04;84.47
51147;BME280;37207;53.060;18.726;2024-01-30T10:11:39;102198.46;;;4.07;84.11
51147;BME280;37207;53.060;18.726;2024-01-30T10:14:06;102194.70;;;4.10;84.01
51147;BME280;37207;53.060;18.726;2024-01-30T10:16:34;102194.45;;;4.11;83.83
51147;BME280;37207;53.060;18.726;2024-01-30T10:19:00;102189.61;;;4.11;83.45
51147;BME280;37207;53.060;18.726;2024-01-30T10:21:27;102188.77;;;4.09;83.48
51147;BME280;37207;53.060;18.726;2024-01-30T10:23:54;102185.17;;;4.09;83.28
51147;BME280;37207;53.060;18.726;2024-01-30T10:26:20;102183.74;;;4.11;83.34
51147;BME280;37207;53.060;18.726;2024-01-30T10:28:47;102182.48;;;4.14;83.20
51147;BME280;37207;53.060;18.726;2024-01-30T10:31:18;102179.20;;;4.20;83.18
51147;BME280;37207;53.060;18.726;2024-01-30T10:33:47;102167.83;;;4.28;83.56
51147;BME280;37207;53.060;18.726;2024-01-30T10:36:14;102163.44;;;4.38;83.47
51147;BME280;37207;53.060;18.726;2024-01-30T10:38:43;102161.59;;;4.50;83.53
51147;BME280;37207;53.060;18.726;2024-01-30T10:41:13;102155.77;;;4.62;83.24
51147;BME280;37207;53.060;18.726;2024-01-30T10:43:41;102157.12;;;4.76;83.07
51147;BME280;37207;53.060;18.726;2024-01-30T10:46:20;102155.78;;;4.90;83.23
51147;BME280;37207;53.060;18.726;2024-01-30T10:48:57;102154.80;;;5.07;83.04
51147;BME280;37207;53.060;18.726;2024-01-30T10:51:28;102156.88;;;5.23;82.28
51147;BME280;37207;53.060;18.726;2024-01-30T10:53:56;102159.71;;;5.40;82.51
51147;BME280;37207;53.060;18.726;2024-01-30T10:56:24;102158.34;;;5.76;82.63
51147;BME280;37207;53.060;18.726;2024-01-30T10:58:51;102155.05;;;6.27;82.33
51147;BME280;37207;53.060;18.726;2024-01-30T11:01:19;102153.41;;;6.91;82.37
51147;BME280;37207;53.060;18.726;2024-01-30T11:03:52;102155.52;;;7.68;81.25
51147;BME280;37207;53.060;18.726;2024-01-30T11:06:24;102153.17;;;8.64;79.87
51147;BME280;37207;53.060;18.726;2024-01-30T11:09:02;102148.55;;;9.87;77.55
51147;BME280;37207;53.060;18.726;2024-01-30T11:11:59;102143.65;;;11.15;75.20
51147;BME280;37207;53.060;18.726;2024-01-30T11:14:30;102142.98;;;12.52;71.87
51147;BME280;37207;53.060;18.726;2024-01-30T11:16:58;102134.95;;;13.48;70.60
51147;BME280;37207;53.060;18.726;2024-01-30T11:19:26;102138.66;;;14.09;68.78
51147;BME280;37207;53.060;18.726;2024-01-30T11:21:53;102133.32;;;14.57;67.24
51147;BME280;37207;53.060;18.726;2024-01-30T11:24:20;102131.56;;;15.08;65.36
51147;BME280;37207;53.060;18.726;2024-01-30T11:26:49;102128.59;;;15.39;63.71
51147;BME280;37207;53.060;18.726;2024-01-30T11:29:17;102127.95;;;15.40;62.78
51147;BME280;37207;53.060;18.726;2024-01-30T11:31:54;102123.16;;;15.22;60.92
51147;BME280;37207;53.060;18.726;2024-01-30T11:34:21;102117.52;;;14.74;59.86
51147;BME280;37207;53.060;18.726;2024-01-30T11:36:55;102120.40;;;14.23;61.41
51147;BME280;37207;53.060;18.726;2024-01-30T11:39:25;102116.02;;;13.72;60.18
51147;BME280;37207;53.060;18.726;2024-01-30T11:41:56;102116.63;;;13.37;60.29
51147;BME280;37207;53.060;18.726;2024-01-30T11:44:23;102114.59;;;13.28;59.06
51147;BME280;37207;53.060;18.726;2024-01-30T11:46:51;102116.27;;;13.04;59.33
51147;BME280;37207;53.060;18.726;2024-01-30T11:49:18;102110.63;;;12.70;60.45
51147;BME280;37207;53.060;18.726;2024-01-30T11:51:46;102107.64;;;12.49;61.36
51147;BME280;37207;53.060;18.726;2024-01-30T11:54:18;102105.48;;;12.37;61.41
51147;BME280;37207;53.060;18.726;2024-01-30T11:56:44;102099.58;;;12.18;59.04
51147;BME280;37207;53.060;18.726;2024-01-30T11:59:11;102095.06;;;11.79;59.85
51147;BME280;37207;53.060;18.726;2024-01-30T12:01:38;102093.89;;;11.50;59.21
51147;BME280;37207;53.060;18.726;2024-01-30T12:04:04;102092.36;;;11.19;59.23
51147;BME280;37207;53.060;18.726;2024-01-30T12:06:35;102087.18;;;10.87;58.48
51147;BME280;37207;53.060;18.726;2024-01-30T12:09:03;102095.14;;;10.51;59.13
51147;BME280;37207;53.060;18.726;2024-01-30T12:11:45;102092.33;;;10.23;59.51
51147;BME280;37207;53.060;18.726;2024-01-30T12:14:12;102087.73;;;10.04;60.11
51147;BME280;37207;53.060;18.726;2024-01-30T12:16:39;102087.88;;;9.88;60.46
51147;BME280;37207;53.060;18.726;2024-01-30T12:19:05;102084.96;;;9.76;61.73
51147;BME280;37207;53.060;18.726;2024-01-30T12:21:33;102080.48;;;9.66;60.71
51147;BME280;37207;53.060;18.726;2024-01-30T12:24:00;102081.42;;;9.51;60.94
51147;BME280;37207;53.060;18.726;2024-01-30T12:26:28;102074.91;;;9.43;61.99
51147;BME280;37207;53.060;18.726;2024-01-30T12:28:55;102069.81;;;9.34;61.72
51147;BME280;37207;53.060;18.726;2024-01-30T12:31:28;102067.42;;;9.22;62.01
51147;BME280;37207;53.060;18.726;2024-01-30T12:33:55;102063.17;;;9.12;62.02
51147;BME280;37207;53.060;18.726;2024-01-30T12:36:22;102063.75;;;9.03;62.10
51147;BME280;37207;53.060;18.726;2024-01-30T12:38:49;102063.41;;;8.89;61.17
51147;BME280;37207;53.060;18.726;2024-01-30T12:41:16;102063.33;;;8.69;62.05
51147;BME280;37207;53.060;18.726;2024-01-30T12:43:43;102061.60;;;8.61;63.42
51147;BME280;37207;53.060;18.726;2024-01-30T12:46:12;102063.44;;;8.63;63.12